createdAt,value
2023-03-08T00:01:34.382Z,1.21
2023-03-08T00:04:04.610Z,1.22
2023-03-08T00:06:33.215Z,1.23
2023-03-08T00:09:06.246Z,1.23
2023-03-08T00:11:34.488Z,1.24
2023-03-08T00:14:03.669Z,1.23
2023-03-08T00:16:31.914Z,1.21
2023-03-08T00:19:00.122Z,1.20
2023-03-08T00:21:28.366Z,1.19
2023-03-08T00:23:59.806Z,1.17
2023-03-08T00:26:28.206Z,1.15
2023-03-08T00:28:57.127Z,1.15
2023-03-08T00:31:26.621Z,1.14
2023-03-08T00:33:55.356Z,1.14
2023-03-08T00:36:26.014Z,1.13
2023-03-08T00:38:56.290Z,1.14
2023-03-08T00:41:24.545Z,1.15
2023-03-08T00:43:53.021Z,1.16
2023-03-08T00:46:21.743Z,1.15
2023-03-08T00:48:52.284Z,1.15
2023-03-08T00:51:20.851Z,1.15
2023-03-08T00:53:55.908Z,1.16
2023-03-08T00:56:24.253Z,1.17
2023-03-08T00:58:52.794Z,1.19
2023-03-08T01:01:21.120Z,1.21
2023-03-08T01:03:51.236Z,1.22
2023-03-08T01:06:20.219Z,1.22
2023-03-08T01:08:50.125Z,1.22
2023-03-08T01:11:23.962Z,1.22
2023-03-08T01:13:52.426Z,1.23
2023-03-08T01:16:31.311Z,1.24
2023-03-08T01:19:01.408Z,1.28
2023-03-08T01:21:30.735Z,1.30
2023-03-08T01:23:58.956Z,1.33
2023-03-08T01:26:31.088Z,1.35
2023-03-08T01:28:59.600Z,1.37
2023-03-08T01:31:30.204Z,1.39
2023-03-08T01:34:02.025Z,1.41
2023-03-08T01:36:30.777Z,1.42
2023-03-08T01:39:01.218Z,1.42
2023-03-08T01:41:30.976Z,1.44
2023-03-08T01:44:03.694Z,1.48
2023-03-08T01:46:34.443Z,1.50
2023-03-08T01:49:29.306Z,1.53
2023-03-08T01:52:07.273Z,1.55
2023-03-08T01:54:57.022Z,1.58
2023-03-08T01:57:28.455Z,1.60
2023-03-08T01:59:59.097Z,1.61
2023-03-08T02:02:30.071Z,1.64
2023-03-08T02:04:58.423Z,1.65
2023-03-08T02:07:27.529Z,1.67
2023-03-08T02:09:56.162Z,1.68
2023-03-08T02:12:24.440Z,1.68
2023-03-08T02:14:53.470Z,1.69
2023-03-08T02:17:23.903Z,1.71
2023-03-08T02:20:16.331Z,1.73
2023-03-08T02:22:46.280Z,1.76
2023-03-08T02:25:18.954Z,1.78
2023-03-08T02:27:48.941Z,1.78
2023-03-08T02:30:23.508Z,1.81
2023-03-08T02:32:51.811Z,1.82
2023-03-08T02:35:20.146Z,1.82
2023-03-08T02:37:48.461Z,1.84
2023-03-08T02:40:16.819Z,1.86
2023-03-08T02:42:46.688Z,1.88
2023-03-08T02:45:16.114Z,1.91
2023-03-08T02:47:45.725Z,1.94
2023-03-08T02:50:14.721Z,1.96
2023-03-08T02:52:44.391Z,1.98
2023-03-08T02:55:12.748Z,1.98
2023-03-08T02:57:41.462Z,1.99
2023-03-08T03:00:11.050Z,2.01
2023-03-08T03:02:40.578Z,2.02
2023-03-08T03:05:12.614Z,2.04
2023-03-08T03:07:42.974Z,2.06
2023-03-08T03:10:16.461Z,2.08
2023-03-08T03:12:45.148Z,2.09
2023-03-08T03:15:16.841Z,2.07
2023-03-08T03:17:47.665Z,2.04
2023-03-08T03:20:16.582Z,2.01
2023-03-08T03:22:47.179Z,2.00
2023-03-08T03:25:15.532Z,1.97
2023-03-08T03:27:45.125Z,1.94
2023-03-08T03:30:14.357Z,1.91
2023-03-08T03:32:42.921Z,1.90
2023-03-08T03:35:16.811Z,1.90
2023-03-08T03:37:48.201Z,1.92
2023-03-08T03:40:17.151Z,1.94
2023-03-08T03:42:49.890Z,1.94
2023-03-08T03:45:18.270Z,1.94
2023-03-08T03:47:48.212Z,1.94
2023-03-08T03:50:17.647Z,1.94
2023-03-08T03:52:59.778Z,1.94
2023-03-08T03:55:29.655Z,1.94
2023-03-08T03:58:01.310Z,1.95
2023-03-08T04:00:38.108Z,1.96
2023-03-08T04:03:14.319Z,1.97
2023-03-08T04:05:43.870Z,1.95
2023-03-08T04:08:16.149Z,1.93
2023-03-08T04:10:44.670Z,1.91
2023-03-08T04:13:12.907Z,1.92
2023-03-08T04:15:46.030Z,1.94
2023-03-08T04:18:17.572Z,1.97
2023-03-08T04:20:46.831Z,2.00
2023-03-08T04:23:15.935Z,2.03
2023-03-08T04:25:47.658Z,2.05
2023-03-08T04:28:16.631Z,2.06
2023-03-08T04:30:46.522Z,2.07
2023-03-08T04:33:16.951Z,2.07
2023-03-08T04:35:49.679Z,2.08
2023-03-08T04:38:21.688Z,2.08
2023-03-08T04:41:12.268Z,2.08
2023-03-08T04:43:57.053Z,2.09
2023-03-08T04:46:33.205Z,2.09
2023-03-08T04:49:01.586Z,2.11
2023-03-08T04:51:32.885Z,2.11
2023-03-08T04:54:04.941Z,2.11
2023-03-08T04:56:37.101Z,2.09
2023-03-08T04:59:09.951Z,2.09
2023-03-08T05:01:38.267Z,2.09
2023-03-08T05:04:07.151Z,2.10
2023-03-08T05:06:38.713Z,2.10
2023-03-08T05:09:07.132Z,2.10
2023-03-08T05:11:37.237Z,2.11
2023-03-08T05:14:07.725Z,2.12
2023-03-08T05:16:36.823Z,2.13
2023-03-08T05:19:05.210Z,2.13
2023-03-08T05:21:37.138Z,2.13
2023-03-08T05:24:06.217Z,2.13
2023-03-08T05:26:41.251Z,2.15
2023-03-08T05:29:10.998Z,2.18
2023-03-08T05:31:40.204Z,2.20
2023-03-08T05:34:11.359Z,2.21
2023-03-08T05:36:42.848Z,2.23
2023-03-08T05:39:13.491Z,2.26
2023-03-08T05:42:00.742Z,2.29
2023-03-08T05:44:36.363Z,2.32
2023-03-08T05:47:05.621Z,2.34
2023-03-08T05:49:34.587Z,2.38
2023-03-08T05:52:05.581Z,2.43
2023-03-08T05:54:34.542Z,2.47
2023-03-08T05:57:06.042Z,2.51
2023-03-08T05:59:34.649Z,2.54
2023-03-08T06:02:05.005Z,2.56
2023-03-08T06:04:37.501Z,2.60
2023-03-08T06:07:06.904Z,2.62
2023-03-08T06:09:39.217Z,2.65
2023-03-08T06:12:08.769Z,2.70
2023-03-08T06:14:37.015Z,2.75
2023-03-08T06:17:10.080Z,2.82
2023-03-08T06:19:39.964Z,2.88
2023-03-08T06:22:08.483Z,2.98
2023-03-08T06:24:41.707Z,3.09
2023-03-08T06:27:10.568Z,3.18
2023-03-08T06:29:39.785Z,3.27
2023-03-08T06:32:08.437Z,3.34
2023-03-08T06:34:37.889Z,3.40
2023-03-08T06:37:11.037Z,3.46
2023-03-08T06:39:40.170Z,3.52
2023-03-08T06:42:09.224Z,3.59
2023-03-08T06:44:40.010Z,3.69
2023-03-08T06:47:08.331Z,3.81
2023-03-08T06:49:38.190Z,3.95
2023-03-08T06:52:06.940Z,4.11
2023-03-08T06:54:40.345Z,4.29
2023-03-08T06:57:09.226Z,4.50
2023-03-08T06:59:37.647Z,4.68
2023-03-08T07:02:06.988Z,4.85
2023-03-08T07:04:35.731Z,4.99
2023-03-08T07:07:07.821Z,5.11
2023-03-08T07:09:36.933Z,5.20
2023-03-08T07:12:07.782Z,5.27
2023-03-08T07:14:36.676Z,5.32
2023-03-08T07:17:04.994Z,5.38
2023-03-08T07:19:33.196Z,5.45
2023-03-08T07:22:01.463Z,5.52
2023-03-08T07:24:29.883Z,5.56
2023-03-08T07:26:58.092Z,5.59
2023-03-08T07:29:26.321Z,5.61
2023-03-08T07:31:56.180Z,5.66
2023-03-08T07:34:24.996Z,5.70
2023-03-08T07:36:53.215Z,5.73
2023-03-08T07:39:23.078Z,5.75
2023-03-08T07:41:53.315Z,5.79
2023-03-08T07:44:21.613Z,5.83
2023-03-08T07:46:52.737Z,5.85
2023-03-08T07:49:21.639Z,5.85
2023-03-08T07:51:51.522Z,5.85
2023-03-08T07:54:22.368Z,5.87
2023-03-08T07:56:54.225Z,5.87
2023-03-08T07:59:23.650Z,5.86
2023-03-08T08:01:52.881Z,5.86
2023-03-08T08:04:23.428Z,5.87
2023-03-08T08:06:52.359Z,5.87
2023-03-08T08:09:20.689Z,5.87
2023-03-08T08:11:52.220Z,5.85
2023-03-08T08:14:22.659Z,5.82
2023-03-08T08:16:50.993Z,5.79
2023-03-08T08:19:19.256Z,5.78
2023-03-08T08:21:48.720Z,5.80
2023-03-08T08:24:17.070Z,5.85
2023-03-08T08:26:46.029Z,5.93
2023-03-08T08:29:14.398Z,6.03
2023-03-08T08:31:43.550Z,6.15
2023-03-08T08:34:11.824Z,6.29
2023-03-08T08:36:40.151Z,6.41
2023-03-08T08:39:09.170Z,6.55
2023-03-08T08:41:37.618Z,6.66
2023-03-08T08:44:07.855Z,6.76
2023-03-08T08:46:36.727Z,6.86
2023-03-08T08:49:05.962Z,6.94
2023-03-08T08:51:34.493Z,6.98
2023-03-08T08:54:02.954Z,7.01
2023-03-08T08:56:33.721Z,7.03
2023-03-08T08:59:02.399Z,7.03
2023-03-08T09:01:32.841Z,7.04
2023-03-08T09:04:23.012Z,7.05
2023-03-08T09:06:53.782Z,7.03
2023-03-08T09:09:23.143Z,7.03
2023-03-08T09:11:58.335Z,7.03
2023-03-08T09:14:28.051Z,7.05
2023-03-08T09:16:56.361Z,7.06
2023-03-08T09:19:24.885Z,7.10
2023-03-08T09:21:53.469Z,7.13
2023-03-08T09:24:21.597Z,7.17
2023-03-08T09:26:50.607Z,7.23
2023-03-08T09:29:19.843Z,7.28
2023-03-08T09:31:48.018Z,7.34
2023-03-08T09:34:16.851Z,7.38
2023-03-08T09:36:45.342Z,7.39
2023-03-08T09:39:13.890Z,7.37
2023-03-08T09:42:05.371Z,7.34
2023-03-08T09:45:01.527Z,7.29
2023-03-08T09:47:56.900Z,7.25
2023-03-08T09:50:41.858Z,7.22
2023-03-08T09:53:36.138Z,7.21
2023-03-08T09:56:16.292Z,7.19
2023-03-08T09:58:47.114Z,7.17
2023-03-08T10:01:27.280Z,7.15
2023-03-08T10:04:14.066Z,7.13
2023-03-08T10:06:45.951Z,7.09
2023-03-08T10:09:22.548Z,7.05
2023-03-08T10:12:13.468Z,7.00
2023-03-08T10:14:49.502Z,6.96
2023-03-08T10:17:22.875Z,6.93
2023-03-08T10:20:06.900Z,6.88
2023-03-08T10:22:42.581Z,6.84
2023-03-08T10:25:17.155Z,6.81
2023-03-08T10:27:47.803Z,6.80
2023-03-08T10:30:19.616Z,6.77
2023-03-08T10:32:50.730Z,6.72
2023-03-08T10:35:19.026Z,6.65
2023-03-08T10:38:17.204Z,6.60
2023-03-08T10:40:45.484Z,6.58
2023-03-08T10:43:39.262Z,6.58
2023-03-08T10:46:20.333Z,6.58
2023-03-08T10:48:48.694Z,6.57
2023-03-08T10:51:19.534Z,6.53
2023-03-08T10:54:02.873Z,6.52
2023-03-08T10:56:45.025Z,6.50
2023-03-08T10:59:23.873Z,6.49
2023-03-08T11:01:56.527Z,6.49
2023-03-08T11:04:26.363Z,6.48
2023-03-08T11:06:54.642Z,6.47
2023-03-08T11:09:33.662Z,6.45
2023-03-08T11:12:02.065Z,6.44
2023-03-08T11:14:30.911Z,6.44
2023-03-08T11:17:10.595Z,6.43
2023-03-08T11:20:00.761Z,6.42
2023-03-08T11:22:55.796Z,6.42
2023-03-08T11:25:49.010Z,6.41
2023-03-08T11:28:38.899Z,6.40
2023-03-08T11:31:36.589Z,6.40
2023-03-08T11:34:07.863Z,6.41
2023-03-08T11:37:02.347Z,6.40
2023-03-08T11:39:49.253Z,6.41
2023-03-08T11:42:44.918Z,6.42
2023-03-08T11:45:46.762Z,6.46
2023-03-08T11:48:37.331Z,6.49
2023-03-08T11:51:15.544Z,6.54
2023-03-08T11:53:52.703Z,6.66
2023-03-08T11:56:43.017Z,6.84
2023-03-08T11:59:36.061Z,7.10
2023-03-08T12:02:04.409Z,7.34
2023-03-08T12:04:45.599Z,7.48
2023-03-08T12:07:28.251Z,7.59
2023-03-08T12:10:15.525Z,7.78
2023-03-08T12:12:49.142Z,8.07
2023-03-08T12:15:39.131Z,8.38
2023-03-08T12:18:58.561Z,8.71
2023-03-08T12:21:34.573Z,8.93
2023-03-08T12:24:13.608Z,9.17
2023-03-08T12:26:44.890Z,9.37
2023-03-08T12:29:27.619Z,9.53
2023-03-08T12:32:01.293Z,9.77
2023-03-08T12:34:38.068Z,9.98
2023-03-08T12:37:22.583Z,10.18
2023-03-08T12:40:02.311Z,10.32
2023-03-08T12:42:36.662Z,10.38
2023-03-08T12:45:20.127Z,10.37
2023-03-08T12:48:05.271Z,10.33
2023-03-08T12:50:42.046Z,10.27
2023-03-08T12:53:36.588Z,10.21
2023-03-08T12:56:07.377Z,10.18
2023-03-08T12:58:38.569Z,10.20
2023-03-08T13:01:23.917Z,10.21
2023-03-08T13:03:53.784Z,10.22
2023-03-08T13:06:28.030Z,10.16
2023-03-08T13:09:05.007Z,10.08
2023-03-08T13:11:39.230Z,10.08
2023-03-08T13:14:41.350Z,10.14
2023-03-08T13:17:28.777Z,10.25
2023-03-08T13:20:02.780Z,10.33
2023-03-08T13:22:46.693Z,10.39
2023-03-08T13:25:35.293Z,10.45
2023-03-08T13:28:13.692Z,10.49
2023-03-08T13:30:59.203Z,10.51
2023-03-08T13:33:33.672Z,10.48
2023-03-08T13:36:04.715Z,10.42
2023-03-08T13:38:35.828Z,10.39
2023-03-08T13:41:04.409Z,10.37
2023-03-08T13:43:35.026Z,10.37
2023-03-08T13:46:05.992Z,10.31
2023-03-08T13:48:37.591Z,10.23
2023-03-08T13:51:06.072Z,10.18
2023-03-08T13:53:36.558Z,10.20
2023-03-08T13:56:05.868Z,10.26
2023-03-08T13:58:45.682Z,10.37
2023-03-08T14:01:25.236Z,10.54
2023-03-08T14:03:55.273Z,10.76
2023-03-08T14:06:34.033Z,10.92
2023-03-08T14:09:04.646Z,11.00
2023-03-08T14:11:35.102Z,10.94
2023-03-08T14:14:07.584Z,10.84
2023-03-08T14:16:37.626Z,10.75
2023-03-08T14:19:11.860Z,10.68
2023-03-08T14:22:08.325Z,10.58
2023-03-08T14:24:36.674Z,10.45
2023-03-08T14:27:16.157Z,10.33
2023-03-08T14:29:45.724Z,10.22
2023-03-08T14:32:14.101Z,10.13
2023-03-08T14:34:44.805Z,10.03
2023-03-08T14:37:19.241Z,9.95
2023-03-08T14:39:49.608Z,9.89
2023-03-08T14:42:42.166Z,9.81
2023-03-08T14:45:23.948Z,9.73
2023-03-08T14:47:58.529Z,9.69
2023-03-08T14:50:33.648Z,9.66
2023-03-08T14:53:02.537Z,9.61
2023-03-08T14:55:35.727Z,9.56
2023-03-08T14:58:13.468Z,9.52
2023-03-08T15:00:54.952Z,9.47
2023-03-08T15:03:24.039Z,9.43
2023-03-08T15:05:53.498Z,9.41
2023-03-08T15:08:22.314Z,9.39
2023-03-08T15:10:52.002Z,9.37
2023-03-08T15:13:23.494Z,9.32
2023-03-08T15:15:54.587Z,9.28
2023-03-08T15:18:23.619Z,9.25
2023-03-08T15:20:52.184Z,9.19
2023-03-08T15:23:26.658Z,9.14
2023-03-08T15:25:55.623Z,9.08
2023-03-08T15:28:24.120Z,9.02
2023-03-08T15:30:54.946Z,8.98
2023-03-08T15:33:23.844Z,8.94
2023-03-08T15:35:52.100Z,8.90
2023-03-08T15:38:21.640Z,8.84
2023-03-08T15:40:51.734Z,8.79
2023-03-08T15:43:21.176Z,8.75
2023-03-08T15:45:49.583Z,8.70
2023-03-08T15:48:21.189Z,8.64
2023-03-08T15:50:49.841Z,8.59
2023-03-08T15:53:29.652Z,8.52
2023-03-08T15:56:03.616Z,8.46
2023-03-08T15:58:32.759Z,8.42
2023-03-08T16:01:01.147Z,8.38
2023-03-08T16:03:31.313Z,8.34
2023-03-08T16:06:03.015Z,8.28
2023-03-08T16:08:31.734Z,8.23
2023-03-08T16:11:17.123Z,8.18
2023-03-08T16:13:48.680Z,8.14
2023-03-08T16:16:16.937Z,8.08
2023-03-08T16:18:48.953Z,8.02
2023-03-08T16:21:17.691Z,7.97
2023-03-08T16:23:45.936Z,7.92
2023-03-08T16:26:17.478Z,7.87
2023-03-08T16:28:46.936Z,7.82
2023-03-08T16:31:16.800Z,7.78
2023-03-08T16:33:45.957Z,7.74
2023-03-08T16:36:14.257Z,7.71
2023-03-08T16:38:43.617Z,7.68
2023-03-08T16:41:14.219Z,7.67
2023-03-08T16:43:48.873Z,7.67
2023-03-08T16:46:22.464Z,7.66
2023-03-08T16:48:54.668Z,7.67
2023-03-08T16:51:26.369Z,7.67
2023-03-08T16:53:54.899Z,7.66
2023-03-08T16:56:27.908Z,7.67
2023-03-08T16:58:59.570Z,7.67
2023-03-08T17:01:30.853Z,7.67
2023-03-08T17:03:59.235Z,7.67
2023-03-08T17:06:29.855Z,7.66
2023-03-08T17:09:01.005Z,7.66
2023-03-08T17:11:31.833Z,7.64
2023-03-08T17:14:05.804Z,7.63
2023-03-08T17:16:35.680Z,7.62
2023-03-08T17:19:07.394Z,7.61
2023-03-08T17:21:38.672Z,7.60
2023-03-08T17:24:13.295Z,7.56
2023-03-08T17:26:45.860Z,7.53
2023-03-08T17:29:14.436Z,7.50
2023-03-08T17:31:42.917Z,7.46
2023-03-08T17:34:11.188Z,7.41
2023-03-08T17:36:39.983Z,7.35
2023-03-08T17:39:09.293Z,7.29
2023-03-08T17:41:38.794Z,7.22
2023-03-08T17:44:07.033Z,7.17
2023-03-08T17:46:35.416Z,7.11
2023-03-08T17:49:04.080Z,7.04
2023-03-08T17:51:33.239Z,6.98
2023-03-08T17:54:03.409Z,6.92
2023-03-08T17:56:36.656Z,6.86
2023-03-08T17:59:08.523Z,6.80
2023-03-08T18:01:38.346Z,6.75
2023-03-08T18:04:08.780Z,6.69
2023-03-08T18:06:41.657Z,6.66
2023-03-08T18:09:14.709Z,6.62
2023-03-08T18:11:48.342Z,6.58
2023-03-08T18:14:16.690Z,6.53
2023-03-08T18:16:45.168Z,6.48
2023-03-08T18:19:16.938Z,6.43
2023-03-08T18:21:54.174Z,6.38
2023-03-08T18:24:22.432Z,6.32
2023-03-08T18:26:53.284Z,6.28
2023-03-08T18:29:22.175Z,6.22
2023-03-08T18:31:50.383Z,6.17
2023-03-08T18:34:18.955Z,6.12
2023-03-08T18:36:50.220Z,6.08
2023-03-08T18:39:18.417Z,6.03
2023-03-08T18:41:46.601Z,5.97
2023-03-08T18:44:17.647Z,5.91
2023-03-08T18:46:46.763Z,5.86
2023-03-08T18:49:16.052Z,5.81
2023-03-08T18:51:44.552Z,5.75
2023-03-08T18:54:20.897Z,5.70
2023-03-08T18:56:50.083Z,5.66
2023-03-08T18:59:18.467Z,5.58
2023-03-08T19:01:46.744Z,5.50
2023-03-08T19:04:15.286Z,5.44
2023-03-08T19:06:43.471Z,5.39
2023-03-08T19:09:14.584Z,5.37
2023-03-08T19:11:42.966Z,5.32
2023-03-08T19:14:12.139Z,5.26
2023-03-08T19:16:42.152Z,5.19
2023-03-08T19:19:14.555Z,5.12
2023-03-08T19:21:46.910Z,5.00
2023-03-08T19:24:18.619Z,4.90
2023-03-08T19:26:50.584Z,4.85
2023-03-08T19:29:28.850Z,4.81
2023-03-08T19:32:01.886Z,4.74
2023-03-08T19:34:34.209Z,4.68
2023-03-08T19:37:04.864Z,4.65
2023-03-08T19:39:35.147Z,4.58
2023-03-08T19:42:06.090Z,4.55
2023-03-08T19:44:35.426Z,4.53
2023-03-08T19:47:10.226Z,4.53
2023-03-08T19:49:40.045Z,4.52
2023-03-08T19:52:12.494Z,4.51
2023-03-08T19:54:44.582Z,4.48
2023-03-08T19:57:14.999Z,4.47
2023-03-08T19:59:44.841Z,4.44
2023-03-08T20:02:14.160Z,4.39
2023-03-08T20:04:43.242Z,4.35
2023-03-08T20:07:13.151Z,4.31
2023-03-08T20:09:42.881Z,4.21
2023-03-08T20:12:11.552Z,4.13
2023-03-08T20:14:41.396Z,4.09
2023-03-08T20:17:09.591Z,4.05
2023-03-08T20:19:42.112Z,4.02
2023-03-08T20:22:10.908Z,4.02
2023-03-08T20:24:43.826Z,4.01
2023-03-08T20:27:12.291Z,3.97
2023-03-08T20:29:40.997Z,3.90
2023-03-08T20:32:09.387Z,3.83
2023-03-08T20:34:39.789Z,3.79
2023-03-08T20:37:10.151Z,3.77
2023-03-08T20:39:39.117Z,3.74
2023-03-08T20:42:08.185Z,3.72
2023-03-08T20:44:37.274Z,3.70
2023-03-08T20:47:05.799Z,3.68
2023-03-08T20:49:34.107Z,3.64
2023-03-08T20:52:02.775Z,3.62
2023-03-08T20:54:32.400Z,3.58
2023-03-08T20:57:00.636Z,3.52
2023-03-08T20:59:29.099Z,3.45
2023-03-08T21:01:57.446Z,3.38
2023-03-08T21:04:25.985Z,3.31
2023-03-08T21:06:55.880Z,3.27
2023-03-08T21:09:24.731Z,3.22
2023-03-08T21:11:53.879Z,3.20
2023-03-08T21:14:29.172Z,3.19
2023-03-08T21:16:57.829Z,3.17
2023-03-08T21:19:26.452Z,3.15
2023-03-08T21:21:56.734Z,3.10
2023-03-08T21:24:25.327Z,3.04
2023-03-08T21:26:54.019Z,3.00
2023-03-08T21:29:25.363Z,2.96
2023-03-08T21:31:54.223Z,2.88
2023-03-08T21:34:23.663Z,2.82
2023-03-08T21:36:52.402Z,2.78
2023-03-08T21:39:21.066Z,2.76
2023-03-08T21:41:49.563Z,2.73
2023-03-08T21:44:19.345Z,2.71
2023-03-08T21:46:49.017Z,2.70
2023-03-08T21:49:21.972Z,2.68
2023-03-08T21:51:50.452Z,2.65
2023-03-08T21:54:18.864Z,2.64
2023-03-08T21:56:47.356Z,2.63
2023-03-08T21:59:16.878Z,2.61
2023-03-08T22:01:54.145Z,2.62
2023-03-08T22:04:22.664Z,2.64
2023-03-08T22:06:50.868Z,2.67
2023-03-08T22:09:19.512Z,2.69
2023-03-08T22:11:48.712Z,2.71
2023-03-08T22:14:16.930Z,2.73
2023-03-08T22:16:45.181Z,2.74
2023-03-08T22:19:13.603Z,2.73
2023-03-08T22:21:42.023Z,2.72
2023-03-08T22:24:10.352Z,2.71
2023-03-08T22:26:43.658Z,2.71
2023-03-08T22:29:11.797Z,2.69
2023-03-08T22:31:40.466Z,2.68
2023-03-08T22:34:09.789Z,2.67
2023-03-08T22:36:37.976Z,2.68
2023-03-08T22:39:06.539Z,2.71
2023-03-08T22:41:34.860Z,2.72
2023-03-08T22:44:04.249Z,2.73
2023-03-08T22:46:34.664Z,2.72
2023-03-08T22:49:05.080Z,2.75
2023-03-08T22:51:34.645Z,2.77
2023-03-08T22:54:05.650Z,2.81
2023-03-08T22:56:34.459Z,2.85
2023-03-08T22:59:03.797Z,2.89
2023-03-08T23:01:35.361Z,2.93
2023-03-08T23:04:04.931Z,2.95
2023-03-08T23:06:34.529Z,2.97
2023-03-08T23:09:07.202Z,3.00
2023-03-08T23:11:39.171Z,3.05
2023-03-08T23:14:08.287Z,3.07
2023-03-08T23:16:41.872Z,3.09
2023-03-08T23:19:14.937Z,3.11
2023-03-08T23:21:44.650Z,3.11
2023-03-08T23:24:17.176Z,3.12
2023-03-08T23:26:48.577Z,3.13
2023-03-08T23:29:19.448Z,3.13
2023-03-08T23:31:48.069Z,3.13
2023-03-08T23:34:17.037Z,3.14
2023-03-08T23:36:45.404Z,3.17
2023-03-08T23:39:13.589Z,3.19
2023-03-08T23:41:42.398Z,3.21
2023-03-08T23:44:11.348Z,3.23
2023-03-08T23:46:39.950Z,3.23
2023-03-08T23:49:09.491Z,3.24
2023-03-08T23:51:37.636Z,3.24
2023-03-08T23:54:07.168Z,3.25
2023-03-08T23:56:38.120Z,3.27
2023-03-08T23:59:26.936Z,3.27
